EK1111 WMKK-WSSS
Flight info
| Callsign | EK1111 |
|---|---|
| Flight time | N/A |
| Altitude | 27000 |
| Route | RUSBU2D RUSBU Y511 TOPOR A464 ARAMA DCT TEBUN TEBUN1B |
| Aircraft | B77W/H-SDE1E2E3FGHIJ2J3J4J5M1RWXY/LB1D1 |
Departure
| Time | 2026-05-07 07:57 |
|---|---|
| Airport | Kuala Lumpur International Airport (WMKK) |
Arrival
| Time | N/A |
|---|---|
| Airport | Singapore Changi Airport (WSSS) |
| Time | Latitude | Longitude | Altitude | Speed | Heading |
|---|---|---|---|---|---|
| 2026-05-07 07:50 | 2.74790 | 101.72133 | 55 ft | 7 kts | 57° |
| 2026-05-07 07:50 | 2.74812 | 101.72164 | 53 ft | 4 kts | 53° |
| 2026-05-07 07:50 | 2.74852 | 101.72197 | 53 ft | 0 kts | 326° |
| 2026-05-07 07:56 | 2.74886 | 101.72175 | 55 ft | 25 kts | 326° |
| 2026-05-07 07:56 | 2.75286 | 101.71905 | 55 ft | 113 kts | 326° |
| 2026-05-07 07:56 | 2.76171 | 101.71297 | 55 ft | 193 kts | 324° |
| 2026-05-07 07:56 | 2.77342 | 101.70426 | 579 ft | 220 kts | 322° |
| 2026-05-07 07:57 | 2.78607 | 101.69487 | 1555 ft | 227 kts | 323° |
| 2026-05-07 07:57 | 2.79914 | 101.68581 | 2376 ft | 243 kts | 324° |
| 2026-05-07 07:57 | 2.81369 | 101.67548 | 2565 ft | 266 kts | 324° |
| 2026-05-07 07:57 | 2.82899 | 101.66454 | 3107 ft | 274 kts | 326° |
| 2026-05-07 07:58 | 2.84452 | 101.65344 | 3868 ft | 274 kts | 325° |
| 2026-05-07 07:58 | 2.86019 | 101.64218 | 4541 ft | 280 kts | 326° |
| 2026-05-07 07:58 | 2.87594 | 101.63087 | 5293 ft | 280 kts | 326° |
| 2026-05-07 07:58 | 2.89182 | 101.61943 | 5996 ft | 282 kts | 325° |
| 2026-05-07 07:59 | 2.90795 | 101.60788 | 6577 ft | 288 kts | 326° |
| 2026-05-07 07:59 | 2.92435 | 101.59615 | 7197 ft | 289 kts | 325° |
| 2026-05-07 07:59 | 2.94085 | 101.58434 | 7786 ft | 295 kts | 326° |
| 2026-05-07 07:59 | 2.95778 | 101.57221 | 8316 ft | 301 kts | 326° |
| 2026-05-07 08:00 | 2.97450 | 101.56022 | 9038 ft | 300 kts | 326° |
| 2026-05-07 08:00 | 2.99169 | 101.54789 | 9703 ft | 302 kts | 326° |
| 2026-05-07 08:00 | 3.00863 | 101.53576 | 10098 ft | 313 kts | 326° |
| 2026-05-07 08:00 | 3.02698 | 101.52266 | 10241 ft | 335 kts | 326° |
| 2026-05-07 08:01 | 3.04651 | 101.50872 | 10418 ft | 354 kts | 326° |
| 2026-05-07 08:01 | 3.06715 | 101.49400 | 10551 ft | 375 kts | 326° |
| 2026-05-07 08:01 | 3.08881 | 101.47854 | 10896 ft | 388 kts | 326° |
| 2026-05-07 08:01 | 3.11097 | 101.46270 | 11411 ft | 394 kts | 326° |
| 2026-05-07 08:02 | 3.13351 | 101.44658 | 11994 ft | 399 kts | 326° |
| 2026-05-07 08:02 | 3.15610 | 101.43041 | 12688 ft | 401 kts | 326° |
| 2026-05-07 08:02 | 3.17887 | 101.41410 | 13307 ft | 405 kts | 326° |
| 2026-05-07 08:02 | 3.20191 | 101.39761 | 13821 ft | 410 kts | 326° |
| 2026-05-07 08:03 | 3.22522 | 101.38092 | 14345 ft | 413 kts | 326° |
| 2026-05-07 08:03 | 3.24863 | 101.36414 | 14891 ft | 415 kts | 326° |
| 2026-05-07 08:03 | 3.27225 | 101.34722 | 15425 ft | 418 kts | 326° |
| 2026-05-07 08:03 | 3.29595 | 101.33024 | 15961 ft | 421 kts | 326° |
| 2026-05-07 08:04 | 3.31994 | 101.31306 | 16466 ft | 425 kts | 327° |
| 2026-05-07 08:04 | 3.34406 | 101.29579 | 16810 ft | 431 kts | 327° |
| 2026-05-07 08:04 | 3.36860 | 101.27823 | 16775 ft | 443 kts | 327° |
| 2026-05-07 08:04 | 3.39383 | 101.26018 | 16779 ft | 447 kts | 326° |
| 2026-05-07 08:05 | 3.41916 | 101.24205 | 16778 ft | 446 kts | 327° |
| 2026-05-07 08:05 | 3.44594 | 101.22721 | 16771 ft | 440 kts | 344° |
| 2026-05-07 08:05 | 3.47596 | 101.22277 | 16786 ft | 436 kts | 6° |
| 2026-05-07 08:05 | 3.50542 | 101.22918 | 16791 ft | 433 kts | 24° |
| 2026-05-07 08:06 | 3.53186 | 101.24332 | 16783 ft | 431 kts | 37° |
| 2026-05-07 08:06 | 3.55410 | 101.26329 | 16776 ft | 429 kts | 51° |
| 2026-05-07 08:06 | 3.57032 | 101.28812 | 16763 ft | 424 kts | 66° |
| 2026-05-07 08:06 | 3.57872 | 101.31613 | 16764 ft | 420 kts | 82° |
| 2026-05-07 08:07 | 3.57869 | 101.34533 | 16777 ft | 421 kts | 98° |
| 2026-05-07 08:07 | 3.57410 | 101.36422 | 16785 ft | 423 kts | 109° |
| 2026-05-07 08:07 | 3.55613 | 101.39889 | 16776 ft | 428 kts | 126° |
| 2026-05-07 08:07 | 3.53516 | 101.42009 | 16777 ft | 428 kts | 139° |
| 2026-05-07 08:08 | 3.51973 | 101.43251 | 16784 ft | 429 kts | 140° |
| 2026-05-07 08:08 | 3.49621 | 101.45105 | 16777 ft | 431 kts | 140° |
| 2026-05-07 08:08 | 3.47252 | 101.46962 | 16785 ft | 433 kts | 140° |
| 2026-05-07 08:08 | 3.44885 | 101.48826 | 16786 ft | 434 kts | 140° |
| 2026-05-07 08:09 | 3.42516 | 101.50707 | 16778 ft | 434 kts | 139° |
| 2026-05-07 08:09 | 3.40161 | 101.52593 | 16770 ft | 432 kts | 139° |
| 2026-05-07 08:09 | 3.37825 | 101.54473 | 16766 ft | 429 kts | 139° |
| 2026-05-07 08:09 | 3.35519 | 101.56335 | 16771 ft | 428 kts | 139° |
| 2026-05-07 08:10 | 3.33214 | 101.58202 | 16745 ft | 423 kts | 139° |
| 2026-05-07 08:10 | 3.30941 | 101.60042 | 16650 ft | 416 kts | 139° |